createdAt,value
2019-04-11T00:01:05.973Z,5.18
2019-04-11T00:03:33.520Z,5.30
2019-04-11T00:06:01.413Z,5.33
2019-04-11T00:08:28.773Z,5.28
2019-04-11T00:10:57.573Z,5.23
2019-04-11T00:13:28.324Z,5.19
2019-04-11T00:15:54.924Z,5.12
2019-04-11T00:18:22.871Z,5.08
2019-04-11T00:20:51.178Z,5.07
2019-04-11T00:23:18.504Z,5.08
2019-04-11T00:25:48.147Z,5.03
2019-04-11T00:28:15.417Z,4.97
2019-04-11T00:30:42.437Z,5.00
2019-04-11T00:33:09.887Z,4.97
2019-04-11T00:35:37.028Z,4.93
2019-04-11T00:38:04.193Z,4.91
2019-04-11T00:40:31.524Z,4.92
2019-04-11T00:42:58.981Z,4.84
2019-04-11T00:45:29.646Z,4.74
2019-04-11T00:47:57.954Z,4.74
2019-04-11T00:50:25.327Z,4.68
2019-04-11T00:52:52.429Z,4.69
2019-04-11T00:55:19.679Z,4.62
2019-04-11T00:57:47.376Z,4.49
2019-04-11T01:00:15.220Z,4.43
2019-04-11T01:02:43.339Z,4.43
2019-04-11T01:05:11.137Z,4.51
2019-04-11T01:07:38.728Z,4.42
2019-04-11T01:10:06.881Z,4.37
2019-04-11T01:12:34.429Z,4.37
2019-04-11T01:15:04.912Z,4.33
2019-04-11T01:17:32.246Z,4.24
2019-04-11T01:19:59.601Z,4.36
2019-04-11T01:22:26.629Z,4.34
2019-04-11T01:24:53.684Z,4.31
2019-04-11T01:27:21.615Z,4.23
2019-04-11T01:29:49.511Z,4.19
2019-04-11T01:32:17.988Z,4.13
2019-04-11T01:34:45.259Z,4.07
2019-04-11T01:37:16.299Z,4.04
2019-04-11T01:39:49.999Z,3.89
2019-04-11T01:42:17.697Z,3.93
2019-04-11T01:44:47.481Z,3.84
2019-04-11T01:47:20.913Z,3.84
2019-04-11T01:49:48.475Z,3.82
2019-04-11T01:52:15.476Z,3.82
2019-04-11T01:54:42.812Z,3.70
2019-04-11T01:57:11.765Z,3.70
2019-04-11T01:59:39.585Z,3.65
2019-04-11T02:02:26.441Z,3.70
2019-04-11T02:05:00.757Z,3.62
2019-04-11T02:07:28.894Z,3.57
2019-04-11T02:09:56.766Z,3.58
2019-04-11T02:12:23.854Z,3.50
2019-04-11T02:14:52.093Z,3.37
2019-04-11T02:17:19.355Z,3.42
2019-04-11T02:19:46.671Z,3.36
2019-04-11T02:22:35.763Z,3.35
2019-04-11T02:25:15.004Z,3.32
2019-04-11T02:27:42.372Z,3.32
2019-04-11T02:30:11.833Z,3.33
2019-04-11T02:32:40.462Z,3.23
2019-04-11T02:35:08.703Z,3.26
2019-04-11T02:37:38.009Z,3.23
2019-04-11T02:40:07.527Z,3.26
2019-04-11T02:42:35.753Z,3.23
2019-04-11T02:45:19.814Z,3.16
2019-04-11T02:47:35.661Z,3.23
2019-04-11T02:50:03.648Z,3.11
2019-04-11T02:52:31.315Z,3.10
2019-04-11T02:54:58.790Z,3.15
2019-04-11T02:57:26.551Z,3.09
2019-04-11T02:59:56.024Z,3.06
2019-04-11T03:02:23.848Z,3.15
2019-04-11T03:04:52.857Z,3.10
2019-04-11T03:07:20.583Z,3.03
2019-04-11T03:09:48.806Z,3.03
2019-04-11T03:12:19.087Z,2.99
2019-04-11T03:15:05.624Z,2.94
2019-04-11T03:17:23.030Z,2.88
2019-04-11T03:19:59.472Z,2.78
2019-04-11T03:22:16.180Z,2.83
2019-04-11T03:24:44.754Z,2.85
2019-04-11T03:27:12.137Z,2.83
2019-04-11T03:29:40.790Z,2.77
2019-04-11T03:32:51.306Z,2.79
2019-04-11T03:35:31.624Z,2.76
2019-04-11T03:37:40.023Z,2.74
2019-04-11T03:40:00.751Z,2.72
2019-04-11T03:42:25.027Z,2.74
2019-04-11T03:44:46.398Z,2.72
2019-04-11T03:47:25.065Z,2.66
2019-04-11T03:49:49.101Z,2.72
2019-04-11T03:52:12.231Z,2.59
2019-04-11T03:54:40.993Z,2.62
2019-04-11T03:57:09.872Z,2.63
2019-04-11T03:59:40.728Z,2.60
2019-04-11T04:02:16.438Z,2.65
2019-04-11T04:04:45.677Z,2.64
2019-04-11T04:07:14.896Z,2.66
2019-04-11T04:09:43.824Z,2.65
2019-04-11T04:12:13.405Z,2.58
2019-04-11T04:15:04.578Z,2.53
2019-04-11T04:18:05.695Z,2.54
2019-04-11T04:21:01.976Z,2.52
2019-04-11T04:23:35.779Z,2.31
2019-04-11T04:26:09.580Z,2.36
2019-04-11T04:28:35.766Z,2.34
2019-04-11T04:31:04.613Z,2.30
2019-04-11T04:33:35.071Z,2.30
2019-04-11T04:36:02.360Z,2.36
2019-04-11T04:38:31.608Z,2.30
2019-04-11T04:41:10.005Z,2.28
2019-04-11T04:43:29.392Z,2.24
2019-04-11T04:46:13.722Z,2.28
2019-04-11T04:48:27.147Z,2.27
2019-04-11T04:50:57.102Z,2.25
2019-04-11T04:53:26.672Z,2.23
2019-04-11T04:55:54.266Z,2.22
2019-04-11T04:58:24.855Z,2.24
2019-04-11T05:00:54.284Z,2.32
2019-04-11T05:03:26.825Z,2.33
2019-04-11T05:05:58.311Z,2.30
2019-04-11T05:08:30.617Z,2.41
2019-04-11T05:11:04.543Z,2.44
2019-04-11T05:13:34.437Z,2.52
2019-04-11T05:16:16.055Z,2.50
2019-04-11T05:18:37.366Z,2.60
2019-04-11T05:21:10.700Z,2.74
2019-04-11T05:23:42.850Z,2.74
2019-04-11T05:26:17.296Z,2.96
2019-04-11T05:28:47.290Z,2.92
2019-04-11T05:31:20.553Z,3.04
2019-04-11T05:33:47.863Z,3.02
2019-04-11T05:36:14.952Z,3.00
2019-04-11T05:38:42.327Z,3.01
2019-04-11T05:41:12.172Z,3.03
2019-04-11T05:43:40.113Z,3.15
2019-04-11T05:46:26.455Z,3.36
2019-04-11T05:48:58.946Z,3.40
2019-04-11T05:51:24.908Z,3.44
2019-04-11T05:53:54.506Z,3.62
2019-04-11T05:56:27.816Z,3.48
2019-04-11T05:58:59.859Z,3.66
2019-04-11T06:01:36.243Z,3.85
2019-04-11T06:04:13.132Z,4.13
2019-04-11T06:07:00.138Z,4.40
2019-04-11T06:09:33.746Z,3.99
2019-04-11T06:12:21.651Z,3.84
2019-04-11T06:14:58.422Z,4.11
2019-04-11T06:17:27.677Z,4.37
2019-04-11T06:20:29.789Z,4.44
2019-04-11T06:23:05.148Z,4.86
2019-04-11T06:25:43.617Z,4.86
2019-04-11T06:28:18.011Z,5.40
2019-04-11T06:31:10.723Z,5.14
2019-04-11T06:33:42.783Z,5.50
2019-04-11T06:36:35.557Z,5.71
2019-04-11T06:39:16.534Z,5.24
2019-04-11T06:42:07.495Z,5.92
2019-04-11T06:44:50.129Z,5.89
2019-04-11T06:47:47.398Z,6.04
2019-04-11T06:50:33.353Z,5.92
2019-04-11T06:53:00.727Z,5.92
2019-04-11T06:55:45.134Z,6.43
2019-04-11T06:58:16.355Z,6.17
2019-04-11T07:00:49.909Z,6.11
2019-04-11T07:03:25.513Z,6.24
2019-04-11T07:05:51.074Z,6.21
2019-04-11T07:08:20.237Z,6.62
2019-04-11T07:10:55.434Z,6.76
2019-04-11T07:13:46.250Z,6.64
2019-04-11T07:16:15.431Z,7.03
2019-04-11T07:19:17.728Z,7.58
2019-04-11T07:21:45.943Z,7.72
2019-04-11T07:24:32.429Z,7.90
2019-04-11T07:27:09.713Z,7.70
2019-04-11T07:30:05.481Z,7.38
2019-04-11T07:32:34.259Z,7.56
2019-04-11T07:35:19.707Z,7.60
2019-04-11T07:37:49.359Z,7.74
2019-04-11T07:40:36.678Z,7.70
2019-04-11T07:43:13.316Z,8.15
2019-04-11T07:46:09.033Z,8.28
2019-04-11T07:48:38.935Z,7.94
2019-04-11T07:51:17.482Z,8.16
2019-04-11T07:53:48.120Z,8.22
2019-04-11T07:56:39.917Z,8.31
2019-04-11T07:59:16.574Z,8.22
2019-04-11T08:02:10.288Z,8.81
2019-04-11T08:04:57.566Z,8.34
2019-04-11T08:07:44.812Z,8.13
2019-04-11T08:10:16.853Z,8.21
2019-04-11T08:12:43.878Z,8.59
2019-04-11T08:15:41.925Z,8.74
2019-04-11T08:18:32.728Z,8.91
2019-04-11T08:21:26.205Z,8.85
2019-04-11T08:23:56.269Z,8.34
2019-04-11T08:26:52.584Z,8.66
2019-04-11T08:29:24.343Z,8.88
2019-04-11T08:32:11.697Z,8.58
2019-04-11T08:34:46.479Z,8.89
2019-04-11T08:37:31.656Z,9.86
2019-04-11T08:39:59.683Z,9.22
2019-04-11T08:42:50.739Z,9.00
2019-04-11T08:45:19.556Z,9.85
2019-04-11T08:47:52.670Z,9.21
2019-04-11T08:50:21.332Z,9.83
2019-04-11T08:53:08.749Z,9.51
2019-04-11T08:55:55.298Z,8.68
2019-04-11T08:58:23.159Z,9.59
2019-04-11T09:00:56.169Z,9.08
2019-04-11T09:03:59.793Z,9.82
2019-04-11T09:06:24.889Z,9.76
2019-04-11T09:09:11.124Z,9.92
2019-04-11T09:11:58.330Z,10.06
2019-04-11T09:14:46.385Z,9.23
2019-04-11T09:17:34.724Z,9.38
2019-04-11T09:20:38.091Z,9.65
2019-04-11T09:23:11.430Z,9.88
2019-04-11T09:26:14.034Z,10.26
2019-04-11T09:28:46.436Z,10.03
2019-04-11T09:31:42.172Z,9.81
2019-04-11T09:34:28.555Z,10.19
2019-04-11T09:36:58.824Z,10.64
2019-04-11T09:39:47.571Z,9.99
2019-04-11T09:42:43.494Z,9.89
2019-04-11T09:45:45.788Z,10.43
2019-04-11T09:48:42.279Z,10.62
2019-04-11T09:51:33.870Z,10.49
2019-04-11T09:54:22.172Z,10.58
2019-04-11T09:57:18.539Z,11.81
2019-04-11T10:00:18.542Z,12.28
2019-04-11T10:02:53.007Z,12.25
2019-04-11T10:05:27.238Z,13.02
2019-04-11T10:08:10.690Z,13.86
2019-04-11T10:11:17.749Z,14.68
2019-04-11T10:14:17.509Z,15.08
2019-04-11T10:17:04.431Z,13.01
2019-04-11T10:19:54.337Z,12.87
2019-04-11T10:22:41.535Z,13.07
2019-04-11T10:25:32.801Z,14.15
2019-04-11T10:28:29.541Z,12.89
2019-04-11T10:31:04.242Z,13.86
2019-04-11T10:33:44.791Z,13.63
2019-04-11T10:36:34.977Z,15.32
2019-04-11T10:39:27.662Z,16.23
2019-04-11T10:42:02.220Z,16.28
2019-04-11T10:45:00.407Z,16.99
2019-04-11T10:47:29.184Z,16.04
2019-04-11T10:50:19.472Z,16.95
2019-04-11T10:52:58.503Z,18.86
2019-04-11T10:55:48.090Z,17.26
2019-04-11T10:58:19.074Z,17.20
2019-04-11T11:00:55.668Z,14.94
2019-04-11T11:03:30.727Z,13.33
2019-04-11T11:05:59.656Z,13.47
2019-04-11T11:09:12.225Z,13.71
2019-04-11T11:11:48.431Z,14.88
2019-04-11T11:14:55.907Z,13.98
2019-04-11T11:18:34.973Z,12.55
2019-04-11T11:21:01.709Z,14.12
2019-04-11T11:23:56.127Z,16.15
2019-04-11T11:26:43.366Z,17.11
2019-04-11T11:29:37.582Z,16.01
2019-04-11T11:32:16.757Z,18.10
2019-04-11T11:35:05.242Z,14.13
2019-04-11T11:37:49.183Z,15.99
2019-04-11T11:40:38.538Z,16.11
2019-04-11T11:43:30.925Z,16.26
2019-04-11T11:46:16.069Z,16.82
2019-04-11T11:48:59.195Z,19.82
2019-04-11T11:51:33.271Z,19.25
2019-04-11T11:54:19.907Z,18.96
2019-04-11T11:56:48.940Z,18.71
2019-04-11T11:59:23.038Z,18.47
2019-04-11T12:01:56.071Z,19.70
2019-04-11T12:04:48.761Z,16.55
2019-04-11T12:07:17.460Z,16.13
2019-04-11T12:10:02.981Z,17.58
2019-04-11T12:12:37.995Z,14.92
2019-04-11T12:15:31.325Z,15.52
2019-04-11T12:18:21.648Z,17.07
2019-04-11T12:21:01.251Z,16.19
2019-04-11T12:23:56.279Z,16.34
2019-04-11T12:26:16.798Z,18.55
2019-04-11T12:29:04.547Z,18.89
2019-04-11T12:31:34.988Z,17.79
2019-04-11T12:34:24.730Z,16.99
2019-04-11T12:36:53.323Z,17.24
2019-04-11T12:39:49.647Z,16.71
2019-04-11T12:42:19.501Z,17.52
2019-04-11T12:45:06.410Z,16.76
2019-04-11T12:47:38.502Z,17.33
2019-04-11T12:50:29.080Z,19.10
2019-04-11T12:53:03.401Z,19.58
2019-04-11T12:55:49.085Z,18.58
2019-04-11T12:58:41.799Z,17.56
2019-04-11T13:01:32.438Z,16.80
2019-04-11T13:04:30.944Z,18.42
2019-04-11T13:07:32.506Z,16.60
2019-04-11T13:10:11.852Z,21.43
2019-04-11T13:13:38.837Z,18.86
2019-04-11T13:16:12.896Z,18.51
2019-04-11T13:19:02.204Z,17.88
2019-04-11T13:21:46.213Z,19.17
2019-04-11T13:24:31.564Z,17.08
2019-04-11T13:27:36.339Z,17.42
2019-04-11T13:30:22.986Z,17.03
2019-04-11T13:33:05.503Z,18.67
2019-04-11T13:35:39.818Z,18.07
2019-04-11T13:38:17.317Z,19.59
2019-04-11T13:41:04.083Z,21.29
2019-04-11T13:43:57.210Z,18.41
2019-04-11T13:46:46.452Z,16.94
2019-04-11T13:49:36.338Z,20.14
2019-04-11T13:52:31.296Z,20.67
2019-04-11T13:55:01.953Z,19.61
2019-04-11T13:57:58.032Z,17.69
2019-04-11T14:00:45.503Z,15.82
2019-04-11T14:03:41.498Z,16.03
2019-04-11T14:06:15.414Z,16.66
2019-04-11T14:09:22.299Z,16.43
2019-04-11T14:11:51.362Z,18.39
2019-04-11T14:14:21.502Z,15.63
2019-04-11T14:16:58.425Z,16.15
2019-04-11T14:19:45.448Z,16.52
2019-04-11T14:22:13.760Z,17.01
2019-04-11T14:25:11.429Z,18.94
2019-04-11T14:27:36.816Z,18.09
2019-04-11T14:30:33.002Z,17.60
2019-04-11T14:33:01.046Z,16.42
2019-04-11T14:35:39.293Z,16.67
2019-04-11T14:38:16.448Z,17.27
2019-04-11T14:41:09.835Z,18.35
2019-04-11T14:43:43.809Z,15.88
2019-04-11T14:46:29.749Z,15.68
2019-04-11T14:49:05.679Z,18.04
2019-04-11T14:51:59.316Z,18.79
2019-04-11T14:54:33.212Z,19.23
2019-04-11T14:57:24.278Z,17.15
2019-04-11T14:59:59.034Z,18.07
2019-04-11T15:02:50.051Z,16.68
2019-04-11T15:05:39.852Z,17.65
2019-04-11T15:08:08.749Z,17.62
2019-04-11T15:11:09.694Z,16.19
2019-04-11T15:13:37.933Z,17.53
2019-04-11T15:16:30.810Z,17.48
2019-04-11T15:19:00.383Z,17.48
2019-04-11T15:21:45.988Z,16.55
2019-04-11T15:24:15.877Z,15.61
2019-04-11T15:27:01.387Z,17.71
2019-04-11T15:29:36.503Z,17.45
2019-04-11T15:32:22.294Z,16.36
2019-04-11T15:34:58.490Z,14.82
2019-04-11T15:37:51.219Z,15.27
2019-04-11T15:40:21.823Z,15.18
2019-04-11T15:43:14.288Z,15.87
2019-04-11T15:45:51.789Z,16.23
2019-04-11T15:48:36.809Z,16.21
2019-04-11T15:51:23.498Z,16.20
2019-04-11T15:54:15.989Z,15.56
2019-04-11T15:56:51.962Z,15.38
2019-04-11T15:59:38.909Z,14.11
2019-04-11T16:02:16.078Z,14.50
2019-04-11T16:05:07.949Z,14.20
2019-04-11T16:08:12.744Z,14.56
2019-04-11T16:10:48.111Z,15.24
2019-04-11T16:13:32.769Z,15.43
2019-04-11T16:16:06.805Z,15.37
2019-04-11T16:18:48.335Z,17.34
2019-04-11T16:21:23.936Z,16.44
2019-04-11T16:24:01.384Z,15.20
2019-04-11T16:26:40.757Z,14.80
2019-04-11T16:29:20.650Z,15.54
2019-04-11T16:31:47.771Z,14.43
2019-04-11T16:34:48.749Z,15.49
2019-04-11T16:37:17.581Z,15.68
2019-04-11T16:40:00.786Z,15.42
2019-04-11T16:42:42.639Z,14.93
2019-04-11T16:45:38.477Z,14.57
2019-04-11T16:48:06.062Z,13.86
2019-04-11T16:50:33.116Z,13.83
2019-04-11T16:53:00.396Z,13.85
2019-04-11T16:55:27.782Z,13.54
2019-04-11T16:57:55.243Z,13.11
2019-04-11T17:00:22.405Z,13.03
2019-04-11T17:02:49.721Z,14.06
2019-04-11T17:05:16.772Z,13.81
2019-04-11T17:07:56.746Z,13.08
2019-04-11T17:10:43.395Z,13.51
2019-04-11T17:13:13.110Z,12.73
2019-04-11T17:15:40.364Z,12.56
2019-04-11T17:18:07.523Z,12.33
2019-04-11T17:20:36.150Z,13.12
2019-04-11T17:23:07.476Z,12.69
2019-04-11T17:25:34.975Z,12.32
2019-04-11T17:28:02.259Z,11.88
2019-04-11T17:30:29.554Z,12.56
2019-04-11T17:32:57.962Z,12.14
2019-04-11T17:35:25.273Z,11.55
2019-04-11T17:37:52.775Z,11.80
2019-04-11T17:40:21.227Z,11.36
2019-04-11T17:42:48.399Z,11.28
2019-04-11T17:45:15.607Z,11.01
2019-04-11T17:47:44.927Z,10.85
2019-04-11T17:50:12.896Z,10.50
2019-04-11T17:52:43.001Z,10.35
2019-04-11T17:55:11.209Z,10.36
2019-04-11T17:57:40.865Z,10.09
2019-04-11T18:00:12.047Z,9.87
2019-04-11T18:02:41.495Z,9.74
2019-04-11T18:05:08.953Z,9.58
2019-04-11T18:07:38.317Z,9.38
2019-04-11T18:10:05.820Z,9.18
2019-04-11T18:12:34.413Z,9.07
2019-04-11T18:15:03.497Z,8.97
2019-04-11T18:17:32.721Z,8.92
2019-04-11T18:20:00.559Z,8.84
2019-04-11T18:22:29.547Z,8.73
2019-04-11T18:24:57.747Z,8.73
2019-04-11T18:27:24.902Z,8.63
2019-04-11T18:29:53.644Z,8.53
2019-04-11T18:32:22.645Z,8.48
2019-04-11T18:34:52.824Z,8.53
2019-04-11T18:37:19.955Z,8.34
2019-04-11T18:39:49.340Z,8.25
2019-04-11T18:42:16.529Z,8.24
2019-04-11T18:44:43.603Z,8.32
2019-04-11T18:47:10.724Z,8.27
2019-04-11T18:49:46.335Z,8.23
2019-04-11T18:52:19.975Z,8.16
2019-04-11T18:54:44.288Z,8.01
2019-04-11T18:57:13.289Z,8.02
2019-04-11T18:59:40.778Z,7.92
2019-04-11T19:02:09.950Z,7.98
2019-04-11T19:04:36.953Z,8.05
2019-04-11T19:07:05.126Z,7.97
2019-04-11T19:09:34.449Z,7.76
2019-04-11T19:12:04.921Z,7.83
2019-04-11T19:14:32.417Z,7.78
2019-04-11T19:17:01.659Z,7.83
2019-04-11T19:19:33.679Z,7.70
2019-04-11T19:22:00.837Z,7.60
2019-04-11T19:24:43.156Z,7.65
2019-04-11T19:27:14.055Z,7.60
2019-04-11T19:29:41.508Z,7.46
2019-04-11T19:32:08.626Z,7.39
2019-04-11T19:34:41.116Z,7.49
2019-04-11T19:37:11.797Z,7.42
2019-04-11T19:39:37.612Z,7.34
2019-04-11T19:42:08.872Z,7.34
2019-04-11T19:44:35.215Z,7.21
2019-04-11T19:47:02.567Z,7.12
2019-04-11T19:49:29.722Z,7.03
2019-04-11T19:51:58.665Z,7.05
2019-04-11T19:54:32.959Z,6.97
2019-04-11T19:57:04.949Z,6.87
2019-04-11T19:59:32.383Z,6.89
2019-04-11T20:02:00.227Z,6.81
2019-04-11T20:04:27.779Z,6.81
2019-04-11T20:06:55.423Z,6.71
2019-04-11T20:09:22.549Z,6.57
2019-04-11T20:11:49.767Z,6.57
2019-04-11T20:14:19.243Z,6.57
2019-04-11T20:16:48.908Z,6.53
2019-04-11T20:19:17.468Z,6.55
2019-04-11T20:21:44.935Z,6.48
2019-04-11T20:24:14.367Z,6.33
2019-04-11T20:26:41.130Z,6.39
2019-04-11T20:29:10.985Z,6.26
2019-04-11T20:31:38.278Z,6.18
2019-04-11T20:34:07.292Z,6.07
2019-04-11T20:36:40.782Z,6.14
2019-04-11T20:39:07.290Z,6.09
2019-04-11T20:41:34.711Z,6.08
2019-04-11T20:44:12.970Z,5.97
2019-04-11T20:46:40.269Z,5.95
2019-04-11T20:49:07.739Z,5.92
2019-04-11T20:51:35.069Z,5.88
2019-04-11T20:54:07.054Z,5.92
2019-04-11T20:56:34.623Z,5.81
2019-04-11T20:59:01.700Z,5.74
2019-04-11T21:01:28.790Z,5.82
2019-04-11T21:04:00.115Z,5.66
2019-04-11T21:06:26.116Z,5.66
2019-04-11T21:08:53.167Z,5.67
2019-04-11T21:11:20.338Z,5.64
2019-04-11T21:13:47.399Z,5.59
2019-04-11T21:16:14.449Z,5.53
2019-04-11T21:18:41.758Z,5.50
2019-04-11T21:21:08.820Z,5.49
2019-04-11T21:23:35.835Z,5.42
2019-04-11T21:26:03.327Z,5.33
2019-04-11T21:28:30.947Z,5.35
2019-04-11T21:31:00.090Z,5.33
2019-04-11T21:33:28.849Z,5.23
2019-04-11T21:36:01.422Z,5.26
2019-04-11T21:38:30.855Z,5.08
2019-04-11T21:40:59.495Z,5.05
2019-04-11T21:43:26.549Z,5.03
2019-04-11T21:45:55.430Z,4.98
2019-04-11T21:48:23.235Z,4.99
2019-04-11T21:50:50.573Z,4.99
2019-04-11T21:53:17.676Z,5.00
2019-04-11T21:55:47.315Z,4.82
2019-04-11T21:58:19.447Z,4.86
2019-04-11T22:00:51.786Z,4.85
2019-04-11T22:03:23.999Z,4.86
2019-04-11T22:05:49.142Z,4.80
2019-04-11T22:08:16.406Z,4.77
2019-04-11T22:10:43.442Z,4.64
2019-04-11T22:13:10.835Z,4.70
2019-04-11T22:15:42.045Z,4.58
2019-04-11T22:18:07.373Z,4.49
2019-04-11T22:20:34.525Z,4.47
2019-04-11T22:23:01.712Z,4.46
2019-04-11T22:25:28.751Z,4.50
2019-04-11T22:27:57.222Z,4.42
2019-04-11T22:30:25.404Z,4.33
2019-04-11T22:33:00.993Z,4.36
2019-04-11T22:35:29.110Z,4.26
2019-04-11T22:37:59.680Z,4.26
2019-04-11T22:40:25.994Z,4.33
2019-04-11T22:42:53.178Z,4.27
2019-04-11T22:45:20.201Z,4.11
2019-04-11T22:47:47.254Z,4.16
2019-04-11T22:50:14.294Z,4.07
2019-04-11T22:52:43.999Z,3.98
2019-04-11T22:55:11.856Z,3.96
2019-04-11T22:57:40.888Z,3.93
2019-04-11T23:00:09.624Z,3.92
2019-04-11T23:02:48.939Z,3.88
2019-04-11T23:05:17.427Z,3.83
2019-04-11T23:07:45.934Z,3.70
2019-04-11T23:10:17.117Z,3.71
2019-04-11T23:12:45.787Z,3.60
2019-04-11T23:15:15.195Z,3.63
2019-04-11T23:17:43.933Z,3.54
2019-04-11T23:20:11.922Z,3.50
2019-04-11T23:22:42.803Z,3.45
2019-04-11T23:25:09.456Z,3.42
2019-04-11T23:27:36.530Z,3.35
2019-04-11T23:30:04.588Z,3.35
2019-04-11T23:32:32.966Z,3.31
2019-04-11T23:35:00.029Z,3.30
2019-04-11T23:37:27.083Z,3.20
2019-04-11T23:39:54.142Z,3.30
2019-04-11T23:42:22.974Z,3.19
2019-04-11T23:44:50.476Z,3.31
2019-04-11T23:47:20.091Z,3.32
2019-04-11T23:49:49.626Z,3.22
2019-04-11T23:52:16.957Z,3.23
2019-04-11T23:54:44.042Z,3.21
2019-04-11T23:57:11.078Z,3.18
2019-04-11T23:59:40.029Z,3.14
